首页
METAR-TAF:

METAR-TAF

机场 :

瑟克特夫卡爾, 俄罗斯

纬度: 61-43N, 经度: 050-50E, 海拔: 119米

当前天气观测

该预报发布于38分钟前的08:00 UTC
风速14节,风向南转西南,有时为27节阵风
温度 4°C
湿度 56%
气压 1001 hPa
能见度10公里或以上
多云层高于2800英尺

METAR: UUYY 030800Z 20007G14MPS 9999 BKN028 04/M04 Q1001 R18/520245 NOSIG RMK QFE743/0990

时间: 11:38 (08:38 UTC)

预报

该预报发布于3小时和38分钟前的05:00 UTC
预报有效从03日的 06点(UTC)到 04日的 06点(UTC)
风速10节,风向南转西南,有时为27节阵风
能见度10公里或以上
多云层高于1700英尺
短暂存在
从 03日的 06点(UTC)到 03日的 12点(UTC)
风速17节,风向南转西南,有时为31节阵风
能見度: 3100
多云层高于1100英尺, 积雨云.
小阵雪, 雨
短暂存在
从 03日的 12点(UTC)到 04日的 06点(UTC)
风速16节,风向西南,有时为29节阵风
少量云层高于700英尺
多云层高于1600英尺, 积雨云.
小阵雨

TAF: UUYY 030500Z 0306/0406 20005G14MPS 9999 BKN017 TEMPO 0306/0312 21009G16MPS 3100 -SHSNRA BKN011CB TEMPO 0312/0406 22008G15MPS -SHRA FEW007 BKN016CB

超过4000个机场的气象观测和天气预报(METAR&TAF报告)。

可查询的气象台以黄色和红色小点在地图上表示。

将鼠标移到小点上方,可查看气象台名称。

然后点击查看天气观测和预报。

如需切换地图:点击带黑十字的绿色按钮放大地图;点击带横线的绿色按钮缩小地图;或者点击绿色箭头查看邻近地区的地图。


METAR-TAF: